Shin Puropan Maru — JG5508 — position and weather

sailwx.info

Track history (hours):
 
Tides and Currents Weather Stations Pressure Air Temp Water Temp Dewpoint Dewpoint Depression Visibility Wind Speed Wind Dir Waves Ship Positions

Shin Puropan Maru

Last reported at 2014-Aug-29 04:33 UTC. Time now 2014-Aug-29 05:32 UTC.
Position N 35°32' E 139°59'.

Length 66 m; draft 4.6 m.

Type: Ship (hazmat cat A). MMSI: 431100348.

Date/timePositionNaut miles runAvg speedWind from/ knotsBaromVisibWave heightAir tempDewpointWater temp
2014-Aug-29 04:33N 35°32' E 139°59'5 4.9
2014-Aug-29 03:33N 35°33' E 140°05'0 0.0
2014-Aug-29 02:32N 35°33' E 140°05'0 0.0
2014-Aug-29 01:32N 35°33' E 140°05'0 0.0
2014-Aug-29 00:32N 35°33' E 140°05'0 0.2
2014-Aug-28 23:33N 35°33' E 140°05'1 0.6
2014-Aug-28 22:32N 35°33' E 140°05'0 0.0
2014-Aug-28 21:32N 35°33' E 140°05'0 0.0
2014-Aug-28 20:32N 35°33' E 140°05'0 0.0
2014-Aug-28 19:32N 35°33' E 140°05'0 0.0
2014-Aug-28 18:32N 35°33' E 140°05'0 0.0
2014-Aug-28 17:32N 35°33' E 140°05'0 0.0
2014-Aug-28 16:29N 35°33' E 140°05'0 0.0
2014-Aug-28 15:32N 35°33' E 140°05'0 0.0
2014-Aug-28 14:32N 35°33' E 140°05'0 0.0
2014-Aug-28 13:32N 35°33' E 140°05'0 0.0
2014-Aug-28 12:32N 35°33' E 140°05'0 0.0
2014-Aug-28 11:32N 35°33' E 140°05'0 0.0
2014-Aug-28 10:29N 35°33' E 140°05'0 0.0
2014-Aug-28 09:26N 35°33' E 140°05'0 0.0
2014-Aug-28 08:29N 35°33' E 140°05'3 3.0
2014-Aug-28 07:33N 35°33' E 140°02'1212.0
2014-Aug-28 06:34N 35°26' E 139°49'1110.7
2014-Aug-28 05:33N 35°16' E 139°46'1111.2
2014-Aug-28 04:33N 35°05' E 139°43'24210.5
2014-Aug-27 05:33N 33°58' E 135°01'1313.1
2014-Aug-27 04:34N 34°11' E 134°59'1512.8
2014-Aug-27 03:24N 34°25' E 135°05'1112.9
2014-Aug-27 02:33N 34°32' E 135°16'8 8.4
2014-Aug-27 01:33N 34°34' E 135°26'0 0.0
2014-Aug-27 00:14N 34°34' E 135°26'1 0.5
2014-Aug-26 22:33N 34°35' E 135°25'2 2.0
2014-Aug-26 21:27N 34°35' E 135°23'0 0.0
2014-Aug-26 20:33N 34°35' E 135°23'0 0.0
2014-Aug-26 19:33N 34°35' E 135°23'0 0.0
2014-Aug-26 18:33N 34°35' E 135°23'0 0.0
2014-Aug-26 17:33N 34°35' E 135°23'0 0.0
2014-Aug-26 16:33N 34°35' E 135°23'0 0.0
2014-Aug-26 15:33N 34°35' E 135°23'0 0.0
2014-Aug-26 14:33N 34°35' E 135°23'0 0.0
2014-Aug-26 13:33N 34°35' E 135°23'0 0.0
2014-Aug-26 12:27N 34°35' E 135°23'0 0.1
2014-Aug-26 11:33N 34°35' E 135°23'5 5.0
2014-Aug-26 10:33N 34°32' E 135°18'1211.5
2014-Aug-26 09:32N 34°24' E 135°07'1211.6
2014-Aug-26 08:31N 34°15' E 134°59'211 9.2
2014-Aug-25 09:30N 34°51' E 139°12'1212.0
2014-Aug-25 08:32N 34°58' E 139°23'1211.8
2014-Aug-25 07:33N 35°04' E 139°34'1212.3
2014-Aug-25 06:33N 35°12' E 139°46'1111.2
2014-Aug-25 05:34N 35°23' E 139°42'1212.1
2014-Aug-25 04:33N 35°31' E 139°54'10 9.5
2014-Aug-25 03:33N 35°33' E 140°05'0 0.0
2014-Aug-25 02:23N 35°33' E 140°05'0 0.0
2014-Aug-25 01:29N 35°33' E 140°05'0 0.0
2014-Aug-25 00:23N 35°33' E 140°05'0 0.1
2014-Aug-24 23:33N 35°33' E 140°05'8 7.6
2014-Aug-24 22:33N 35°30' E 139°56'1 1.0
2014-Aug-24 21:30N 35°29' E 139°56'0 0.0
2014-Aug-24 20:30N 35°29' E 139°56'0 0.0
2014-Aug-24 19:33N 35°29' E 139°56'0 0.0
2014-Aug-24 18:30N 35°29' E 139°56'0 0.0
2014-Aug-24 17:33N 35°29' E 139°56'0 0.0
2014-Aug-24 16:33N 35°29' E 139°56'0 0.0
2014-Aug-24 15:30N 35°29' E 139°56'0 0.0
2014-Aug-24 14:33N 35°29' E 139°56'0 0.0
2014-Aug-24 13:21N 35°29' E 139°56'0 0.1
2014-Aug-24 12:33N 35°29' E 139°56'0 0.0
2014-Aug-24 11:27N 35°29' E 139°56'0 0.0
2014-Aug-24 10:33N 35°29' E 139°56'0 0.0
2014-Aug-24 09:33N 35°29' E 139°56'0 0.0
2014-Aug-24 08:30N 35°29' E 139°56'0 0.0
2014-Aug-24 07:30N 35°29' E 139°56'0 0.0
2014-Aug-24 06:30N 35°29' E 139°56'0 0.0
2014-Aug-24 05:30N 35°29' E 139°56'0 0.0
2014-Aug-24 04:33N 35°29' E 139°56'5 4.9
2014-Aug-24 03:33N 35°27' E 139°50'1111.1
2014-Aug-24 02:33N 35°17' E 139°46'1212.1
2014-Aug-24 01:33N 35°05' E 139°45'241 6.7
2014-Aug-22 13:28N 34°12' E 134°59'2010.4
2014-Aug-22 11:33N 34°29' E 135°11'1211.6
2014-Aug-22 10:33N 34°36' E 135°22'3 0.6
2014-Aug-22 05:05N 34°35' E 135°26'0 0.8
2014-Aug-22 04:33N 34°35' E 135°25'2 2.0
2014-Aug-22 03:33N 34°35' E 135°23'0 0.0
2014-Aug-22 02:23N 34°35' E 135°23'0 0.1
2014-Aug-22 01:33N 34°35' E 135°23'1111.2
2014-Aug-22 00:33N 34°28' E 135°12'2511.7
2014-Aug-21 22:26N 34°05' E 135°00'8 0.2
2014-Aug-20 09:16N 34°13' E 134°59'16 9.3
2014-Aug-20 07:33N 34°27' E 135°09'1111.1
2014-Aug-20 06:32N 34°34' E 135°19'5 0.8
2014-Aug-20 00:33N 34°35' E 135°25'5 5.3
2014-Aug-19 23:33N 34°35' E 135°19'1211.8
2014-Aug-19 22:32N 34°26' E 135°08'1511.6
2014-Aug-19 21:12N 34°13' E 134°59'913.2
2014-Aug-19 20:32N 34°04' E 135°00'  
Track history (hours):
 
Tides and Currents Weather Stations Pressure Air Temp Water Temp Dewpoint Dewpoint Depression Visibility Wind Speed Wind Dir Waves Ship Positions

Shin Puropan Maru

Last reported at 2014-Aug-29 04:33 UTC. Time now 2014-Aug-29 05:32 UTC.
Position N 35°32' E 139°59'.

Length 66 m; draft 4.6 m.

Type: Ship (hazmat cat A). MMSI: 431100348.

Date/timePositionNaut miles runAvg speedWind from/ knotsBaromVisibWave heightAir tempDewpointWater temp
2014-Aug-29 04:33N 35°32' E 139°59'5 4.9
2014-Aug-29 03:33N 35°33' E 140°05'0 0.0
2014-Aug-29 02:32N 35°33' E 140°05'0 0.0
2014-Aug-29 01:32N 35°33' E 140°05'0 0.0
2014-Aug-29 00:32N 35°33' E 140°05'0 0.2
2014-Aug-28 23:33N 35°33' E 140°05'1 0.6
2014-Aug-28 22:32N 35°33' E 140°05'0 0.0
2014-Aug-28 21:32N 35°33' E 140°05'0 0.0
2014-Aug-28 20:32N 35°33' E 140°05'0 0.0
2014-Aug-28 19:32N 35°33' E 140°05'0 0.0
2014-Aug-28 18:32N 35°33' E 140°05'0 0.0
2014-Aug-28 17:32N 35°33' E 140°05'0 0.0
2014-Aug-28 16:29N 35°33' E 140°05'0 0.0
2014-Aug-28 15:32N 35°33' E 140°05'0 0.0
2014-Aug-28 14:32N 35°33' E 140°05'0 0.0
2014-Aug-28 13:32N 35°33' E 140°05'0 0.0
2014-Aug-28 12:32N 35°33' E 140°05'0 0.0
2014-Aug-28 11:32N 35°33' E 140°05'0 0.0
2014-Aug-28 10:29N 35°33' E 140°05'0 0.0
2014-Aug-28 09:26N 35°33' E 140°05'0 0.0
2014-Aug-28 08:29N 35°33' E 140°05'3 3.0
2014-Aug-28 07:33N 35°33' E 140°02'1212.0
2014-Aug-28 06:34N 35°26' E 139°49'1110.7
2014-Aug-28 05:33N 35°16' E 139°46'1111.2
2014-Aug-28 04:33N 35°05' E 139°43'24210.5
2014-Aug-27 05:33N 33°58' E 135°01'1313.1
2014-Aug-27 04:34N 34°11' E 134°59'1512.8
2014-Aug-27 03:24N 34°25' E 135°05'1112.9
2014-Aug-27 02:33N 34°32' E 135°16'8 8.4
2014-Aug-27 01:33N 34°34' E 135°26'0 0.0
2014-Aug-27 00:14N 34°34' E 135°26'1 0.5
2014-Aug-26 22:33N 34°35' E 135°25'2 2.0
2014-Aug-26 21:27N 34°35' E 135°23'0 0.0
2014-Aug-26 20:33N 34°35' E 135°23'0 0.0
2014-Aug-26 19:33N 34°35' E 135°23'0 0.0
2014-Aug-26 18:33N 34°35' E 135°23'0 0.0
2014-Aug-26 17:33N 34°35' E 135°23'0 0.0
2014-Aug-26 16:33N 34°35' E 135°23'0 0.0
2014-Aug-26 15:33N 34°35' E 135°23'0 0.0
2014-Aug-26 14:33N 34°35' E 135°23'0 0.0
2014-Aug-26 13:33N 34°35' E 135°23'0 0.0
2014-Aug-26 12:27N 34°35' E 135°23'0 0.1
2014-Aug-26 11:33N 34°35' E 135°23'5 5.0
2014-Aug-26 10:33N 34°32' E 135°18'1211.5
2014-Aug-26 09:32N 34°24' E 135°07'1211.6
2014-Aug-26 08:31N 34°15' E 134°59'211 9.2
2014-Aug-25 09:30N 34°51' E 139°12'1212.0
2014-Aug-25 08:32N 34°58' E 139°23'1211.8
2014-Aug-25 07:33N 35°04' E 139°34'1212.3
2014-Aug-25 06:33N 35°12' E 139°46'1111.2
2014-Aug-25 05:34N 35°23' E 139°42'1212.1
2014-Aug-25 04:33N 35°31' E 139°54'10 9.5
2014-Aug-25 03:33N 35°33' E 140°05'0 0.0
2014-Aug-25 02:23N 35°33' E 140°05'0 0.0
2014-Aug-25 01:29N 35°33' E 140°05'0 0.0
2014-Aug-25 00:23N 35°33' E 140°05'0 0.1
2014-Aug-24 23:33N 35°33' E 140°05'8 7.6
2014-Aug-24 22:33N 35°30' E 139°56'1 1.0
2014-Aug-24 21:30N 35°29' E 139°56'0 0.0
2014-Aug-24 20:30N 35°29' E 139°56'0 0.0
2014-Aug-24 19:33N 35°29' E 139°56'0 0.0
2014-Aug-24 18:30N 35°29' E 139°56'0 0.0
2014-Aug-24 17:33N 35°29' E 139°56'0 0.0
2014-Aug-24 16:33N 35°29' E 139°56'0 0.0
2014-Aug-24 15:30N 35°29' E 139°56'0 0.0
2014-Aug-24 14:33N 35°29' E 139°56'0 0.0
2014-Aug-24 13:21N 35°29' E 139°56'0 0.1
2014-Aug-24 12:33N 35°29' E 139°56'0 0.0
2014-Aug-24 11:27N 35°29' E 139°56'0 0.0
2014-Aug-24 10:33N 35°29' E 139°56'0 0.0
2014-Aug-24 09:33N 35°29' E 139°56'0 0.0
2014-Aug-24 08:30N 35°29' E 139°56'0 0.0
2014-Aug-24 07:30N 35°29' E 139°56'0 0.0
2014-Aug-24 06:30N 35°29' E 139°56'0 0.0
2014-Aug-24 05:30N 35°29' E 139°56'0 0.0
2014-Aug-24 04:33N 35°29' E 139°56'5 4.9
2014-Aug-24 03:33N 35°27' E 139°50'1111.1
2014-Aug-24 02:33N 35°17' E 139°46'1212.1
2014-Aug-24 01:33N 35°05' E 139°45'241 6.7
2014-Aug-22 13:28N 34°12' E 134°59'2010.4
2014-Aug-22 11:33N 34°29' E 135°11'1211.6
2014-Aug-22 10:33N 34°36' E 135°22'3 0.6
2014-Aug-22 05:05N 34°35' E 135°26'0 0.8
2014-Aug-22 04:33N 34°35' E 135°25'2 2.0
2014-Aug-22 03:33N 34°35' E 135°23'0 0.0
2014-Aug-22 02:23N 34°35' E 135°23'0 0.1
2014-Aug-22 01:33N 34°35' E 135°23'1111.2
2014-Aug-22 00:33N 34°28' E 135°12'2511.7
2014-Aug-21 22:26N 34°05' E 135°00'8 0.2
2014-Aug-20 09:16N 34°13' E 134°59'16 9.3
2014-Aug-20 07:33N 34°27' E 135°09'1111.1
2014-Aug-20 06:32N 34°34' E 135°19'5 0.8
2014-Aug-20 00:33N 34°35' E 135°25'5 5.3
2014-Aug-19 23:33N 34°35' E 135°19'1211.8
2014-Aug-19 22:32N 34°26' E 135°08'1511.6
2014-Aug-19 21:12N 34°13' E 134°59'913.2
2014-Aug-19 20:32N 34°04' E 135°00'  

Dump ship's entire track history